sensor_id;sensor_type;location;lat;lon;timestamp;pressure;altitude;pressure_sealevel;temperature;humidity
39739;BME280;25422;48.286;8.484;2023-05-25T00:01:57;94359.22;;;5.09;100.00
39739;BME280;25422;48.286;8.484;2023-05-25T00:04:23;94351.59;;;5.07;100.00
39739;BME280;25422;48.286;8.484;2023-05-25T00:06:52;94351.22;;;5.21;100.00
39739;BME280;25422;48.286;8.484;2023-05-25T00:09:17;94350.88;;;5.36;100.00
39739;BME280;25422;48.286;8.484;2023-05-25T00:11:43;94352.25;;;5.40;100.00
39739;BME280;25422;48.286;8.484;2023-05-25T00:14:09;94344.47;;;5.50;100.00
39739;BME280;25422;48.286;8.484;2023-05-25T00:16:34;94352.25;;;5.50;100.00
39739;BME280;25422;48.286;8.484;2023-05-25T00:19:03;94339.66;;;5.45;100.00
39739;BME280;25422;48.286;8.484;2023-05-25T00:21:30;94346.91;;;5.42;100.00
39739;BME280;25422;48.286;8.484;2023-05-25T00:23:58;94347.56;;;5.34;100.00
39739;BME280;25422;48.286;8.484;2023-05-25T00:26:24;94351.91;;;5.23;100.00
39739;BME280;25422;48.286;8.484;2023-05-25T00:28:50;94343.59;;;5.20;100.00
39739;BME280;25422;48.286;8.484;2023-05-25T00:31:15;94343.88;;;5.17;100.00
39739;BME280;25422;48.286;8.484;2023-05-25T00:33:41;94350.00;;;5.16;100.00
39739;BME280;25422;48.286;8.484;2023-05-25T00:36:07;94347.81;;;5.21;100.00
39739;BME280;25422;48.286;8.484;2023-05-25T00:38:33;94348.94;;;5.28;100.00
39739;BME280;25422;48.286;8.484;2023-05-25T00:40:58;94350.03;;;5.35;100.00
39739;BME280;25422;48.286;8.484;2023-05-25T00:43:24;94348.00;;;5.39;100.00
39739;BME280;25422;48.286;8.484;2023-05-25T00:45:49;94351.97;;;5.53;100.00
39739;BME280;25422;48.286;8.484;2023-05-25T00:48:17;94344.91;;;5.65;100.00
39739;BME280;25422;48.286;8.484;2023-05-25T00:50:43;94344.63;;;5.68;100.00
39739;BME280;25422;48.286;8.484;2023-05-25T00:53:11;94341.75;;;5.71;100.00
39739;BME280;25422;48.286;8.484;2023-05-25T00:55:45;94340.94;;;5.80;100.00
39739;BME280;25422;48.286;8.484;2023-05-25T00:58:15;94340.41;;;5.86;100.00
39739;BME280;25422;48.286;8.484;2023-05-25T01:00:44;94332.88;;;5.93;100.00
39739;BME280;25422;48.286;8.484;2023-05-25T01:03:11;94335.94;;;5.98;100.00
39739;BME280;25422;48.286;8.484;2023-05-25T01:05:44;94333.47;;;6.06;100.00
39739;BME280;25422;48.286;8.484;2023-05-25T01:08:13;94330.56;;;6.10;100.00
39739;BME280;25422;48.286;8.484;2023-05-25T01:10:39;94326.31;;;6.18;100.00
39739;BME280;25422;48.286;8.484;2023-05-25T01:13:08;94327.66;;;6.22;100.00
39739;BME280;25422;48.286;8.484;2023-05-25T01:15:38;94329.59;;;6.30;100.00
39739;BME280;25422;48.286;8.484;2023-05-25T01:18:04;94332.75;;;6.24;100.00
39739;BME280;25422;48.286;8.484;2023-05-25T01:20:29;94327.97;;;6.19;100.00
39739;BME280;25422;48.286;8.484;2023-05-25T01:23:01;94329.06;;;6.17;100.00
39739;BME280;25422;48.286;8.484;2023-05-25T01:25:42;94335.19;;;6.16;100.00
39739;BME280;25422;48.286;8.484;2023-05-25T01:28:15;94335.91;;;6.18;100.00
39739;BME280;25422;48.286;8.484;2023-05-25T01:30:45;94330.28;;;6.22;100.00
39739;BME280;25422;48.286;8.484;2023-05-25T01:33:11;94324.97;;;6.24;100.00
39739;BME280;25422;48.286;8.484;2023-05-25T01:35:37;94320.03;;;6.21;100.00
39739;BME280;25422;48.286;8.484;2023-05-25T01:38:03;94317.56;;;6.19;100.00
39739;BME280;25422;48.286;8.484;2023-05-25T01:40:30;94315.94;;;6.28;100.00
39739;BME280;25422;48.286;8.484;2023-05-25T01:42:59;94329.31;;;6.23;100.00
39739;BME280;25422;48.286;8.484;2023-05-25T01:45:24;94331.66;;;6.17;100.00
39739;BME280;25422;48.286;8.484;2023-05-25T01:50:40;94328.09;;;6.18;100.00
39739;BME280;25422;48.286;8.484;2023-05-25T01:53:09;94324.69;;;6.17;100.00
39739;BME280;25422;48.286;8.484;2023-05-25T01:55:40;94331.50;;;6.18;100.00
39739;BME280;25422;48.286;8.484;2023-05-25T01:58:08;94329.31;;;6.23;100.00
39739;BME280;25422;48.286;8.484;2023-05-25T02:00:34;94322.63;;;6.21;100.00
39739;BME280;25422;48.286;8.484;2023-05-25T02:03:00;94322.63;;;6.21;100.00
39739;BME280;25422;48.286;8.484;2023-05-25T02:05:26;94322.75;;;6.19;100.00
39739;BME280;25422;48.286;8.484;2023-05-25T02:07:52;94322.88;;;6.28;100.00
39739;BME280;25422;48.286;8.484;2023-05-25T02:10:18;94322.34;;;6.34;100.00
39739;BME280;25422;48.286;8.484;2023-05-25T02:12:43;94331.22;;;6.31;100.00
39739;BME280;25422;48.286;8.484;2023-05-25T02:15:10;94320.16;;;6.39;100.00
39739;BME280;25422;48.286;8.484;2023-05-25T02:17:35;94328.19;;;6.36;100.00
39739;BME280;25422;48.286;8.484;2023-05-25T02:20:03;94317.00;;;6.35;100.00
39739;BME280;25422;48.286;8.484;2023-05-25T02:22:30;94317.81;;;6.36;100.00
39739;BME280;25422;48.286;8.484;2023-05-25T02:24:56;94313.69;;;6.33;100.00
39739;BME280;25422;48.286;8.484;2023-05-25T02:27:21;94314.28;;;6.27;100.00
39739;BME280;25422;48.286;8.484;2023-05-25T02:29:47;94320.00;;;6.31;100.00
39739;BME280;25422;48.286;8.484;2023-05-25T02:32:12;94308.38;;;6.25;100.00
39739;BME280;25422;48.286;8.484;2023-05-25T02:34:37;94313.44;;;6.27;100.00
39739;BME280;25422;48.286;8.484;2023-05-25T02:37:04;94307.44;;;6.26;100.00
39739;BME280;25422;48.286;8.484;2023-05-25T02:39:31;94303.19;;;6.25;100.00
39739;BME280;25422;48.286;8.484;2023-05-25T02:41:57;94303.59;;;6.30;100.00
39739;BME280;25422;48.286;8.484;2023-05-25T02:44:25;94300.19;;;6.30;100.00
39739;BME280;25422;48.286;8.484;2023-05-25T02:46:50;94297.75;;;6.28;100.00
39739;BME280;25422;48.286;8.484;2023-05-25T02:49:16;94304.00;;;6.35;100.00
39739;BME280;25422;48.286;8.484;2023-05-25T02:51:41;94298.13;;;6.33;100.00
39739;BME280;25422;48.286;8.484;2023-05-25T02:54:07;94300.19;;;6.30;100.00
39739;BME280;25422;48.286;8.484;2023-05-25T02:56:32;94308.78;;;6.30;100.00
39739;BME280;25422;48.286;8.484;2023-05-25T02:59:00;94316.75;;;6.19;100.00
39739;BME280;25422;48.286;8.484;2023-05-25T03:01:29;94315.53;;;6.13;100.00
39739;BME280;25422;48.286;8.484;2023-05-25T03:03:55;94312.13;;;6.03;100.00
39739;BME280;25422;48.286;8.484;2023-05-25T03:06:23;94311.00;;;5.86;100.00
39739;BME280;25422;48.286;8.484;2023-05-25T03:08:54;94317.97;;;5.76;100.00
39739;BME280;25422;48.286;8.484;2023-05-25T03:11:19;94323.31;;;5.74;100.00
39739;BME280;25422;48.286;8.484;2023-05-25T03:13:46;94321.41;;;5.66;100.00
39739;BME280;25422;48.286;8.484;2023-05-25T03:16:12;94317.84;;;5.57;100.00
39739;BME280;25422;48.286;8.484;2023-05-25T03:18:37;94317.81;;;5.48;100.00
39739;BME280;25422;48.286;8.484;2023-05-25T03:21:03;94322.34;;;5.46;100.00
39739;BME280;25422;48.286;8.484;2023-05-25T03:23:29;94322.19;;;5.37;100.00
39739;BME280;25422;48.286;8.484;2023-05-25T03:25:56;94328.03;;;5.30;100.00
39739;BME280;25422;48.286;8.484;2023-05-25T03:28:23;94319.16;;;5.22;100.00
39739;BME280;25422;48.286;8.484;2023-05-25T03:30:49;94320.63;;;5.15;100.00
39739;BME280;25422;48.286;8.484;2023-05-25T03:33:14;94329.25;;;5.16;100.00
39739;BME280;25422;48.286;8.484;2023-05-25T03:35:44;94330.59;;;5.10;100.00
39739;BME280;25422;48.286;8.484;2023-05-25T03:38:10;94325.13;;;5.03;100.00
39739;BME280;25422;48.286;8.484;2023-05-25T03:40:35;94324.97;;;5.05;100.00
39739;BME280;25422;48.286;8.484;2023-05-25T03:43:01;94325.94;;;5.04;100.00
39739;BME280;25422;48.286;8.484;2023-05-25T03:45:26;94321.56;;;5.04;100.00
39739;BME280;25422;48.286;8.484;2023-05-25T03:47:51;94320.59;;;5.05;100.00
39739;BME280;25422;48.286;8.484;2023-05-25T03:50:18;94321.84;;;5.11;100.00
39739;BME280;25422;48.286;8.484;2023-05-25T03:52:44;94323.91;;;5.07;100.00
39739;BME280;25422;48.286;8.484;2023-05-25T03:55:10;94318.84;;;5.06;100.00
39739;BME280;25422;48.286;8.484;2023-05-25T03:57:35;94327.16;;;5.10;100.00
39739;BME280;25422;48.286;8.484;2023-05-25T04:00:00;94315.31;;;5.17;100.00
39739;BME280;25422;48.286;8.484;2023-05-25T04:02:26;94316.44;;;5.24;100.00
39739;BME280;25422;48.286;8.484;2023-05-25T04:04:53;94331.28;;;5.22;100.00
39739;BME280;25422;48.286;8.484;2023-05-25T04:07:20;94329.41;;;5.24;100.00
39739;BME280;25422;48.286;8.484;2023-05-25T04:09:46;94331.28;;;5.22;100.00
39739;BME280;25422;48.286;8.484;2023-05-25T04:12:11;94333.38;;;5.28;100.00
39739;BME280;25422;48.286;8.484;2023-05-25T04:14:37;94331.88;;;5.35;100.00
39739;BME280;25422;48.286;8.484;2023-05-25T04:17:03;94334.59;;;5.44;100.00
39739;BME280;25422;48.286;8.484;2023-05-25T04:19:28;94337.06;;;5.45;100.00
39739;BME280;25422;48.286;8.484;2023-05-25T04:21:54;94335.72;;;5.51;100.00
39739;BME280;25422;48.286;8.484;2023-05-25T04:24:20;94340.09;;;5.60;100.00
39739;BME280;25422;48.286;8.484;2023-05-25T04:26:46;94334.09;;;5.69;100.00
39739;BME280;25422;48.286;8.484;2023-05-25T04:29:12;94336.44;;;5.72;100.00
39739;BME280;25422;48.286;8.484;2023-05-25T04:32:04;94344.75;;;5.76;100.00
39739;BME280;25422;48.286;8.484;2023-05-25T04:34:43;94342.19;;;5.96;100.00
39739;BME280;25422;48.286;8.484;2023-05-25T04:37:19;94360.25;;;6.07;100.00
39739;BME280;25422;48.286;8.484;2023-05-25T04:39:45;94351.63;;;6.16;100.00
39739;BME280;25422;48.286;8.484;2023-05-25T04:42:11;94352.00;;;6.41;100.00
39739;BME280;25422;48.286;8.484;2023-05-25T04:44:37;94350.09;;;6.43;100.00
39739;BME280;25422;48.286;8.484;2023-05-25T04:47:05;94343.22;;;6.52;100.00
39739;BME280;25422;48.286;8.484;2023-05-25T04:49:32;94346.88;;;6.69;100.00
39739;BME280;25422;48.286;8.484;2023-05-25T04:51:58;94347.63;;;6.89;100.00
39739;BME280;25422;48.286;8.484;2023-05-25T04:54:25;94347.88;;;7.23;100.00
39739;BME280;25422;48.286;8.484;2023-05-25T04:56:50;94341.38;;;7.37;100.00
39739;BME280;25422;48.286;8.484;2023-05-25T04:59:15;94347.44;;;7.56;100.00
39739;BME280;25422;48.286;8.484;2023-05-25T05:01:41;94353.31;;;7.58;100.00
39739;BME280;25422;48.286;8.484;2023-05-25T05:04:11;94354.00;;;7.78;100.00
39739;BME280;25422;48.286;8.484;2023-05-25T05:06:38;94363.66;;;8.22;100.00
39739;BME280;25422;48.286;8.484;2023-05-25T05:09:04;94350.78;;;8.38;100.00
39739;BME280;25422;48.286;8.484;2023-05-25T05:11:29;94358.81;;;8.63;100.00
39739;BME280;25422;48.286;8.484;2023-05-25T05:13:56;94346.25;;;8.93;100.00
39739;BME280;25422;48.286;8.484;2023-05-25T05:16:21;94344.38;;;9.54;100.00
39739;BME280;25422;48.286;8.484;2023-05-25T05:18:47;94357.38;;;10.05;100.00
39739;BME280;25422;48.286;8.484;2023-05-25T05:21:12;94356.56;;;10.13;100.00
39739;BME280;25422;48.286;8.484;2023-05-25T05:23:38;94356.03;;;10.92;100.00
39739;BME280;25422;48.286;8.484;2023-05-25T05:26:04;94369.66;;;11.35;99.40
39739;BME280;25422;48.286;8.484;2023-05-25T05:28:31;94370.34;;;11.29;97.69
39739;BME280;25422;48.286;8.484;2023-05-25T05:30:57;94372.09;;;11.45;93.24
39739;BME280;25422;48.286;8.484;2023-05-25T05:33:23;94381.59;;;11.38;93.26
39739;BME280;25422;48.286;8.484;2023-05-25T05:35:51;94371.56;;;11.10;94.63
39739;BME280;25422;48.286;8.484;2023-05-25T05:38:19;94377.19;;;10.74;99.72
39739;BME280;25422;48.286;8.484;2023-05-25T05:40:46;94389.63;;;11.36;94.10
39739;BME280;25422;48.286;8.484;2023-05-25T05:43:12;94380.44;;;12.96;81.49
39739;BME280;25422;48.286;8.484;2023-05-25T05:45:39;94390.56;;;12.84;80.54
39739;BME280;25422;48.286;8.484;2023-05-25T05:48:05;94384.53;;;14.25;69.20
39739;BME280;25422;48.286;8.484;2023-05-25T05:50:37;94389.22;;;14.51;67.43
39739;BME280;25422;48.286;8.484;2023-05-25T05:53:03;94378.50;;;13.94;65.80
39739;BME280;25422;48.286;8.484;2023-05-25T05:55:29;94385.75;;;14.65;63.59
39739;BME280;25422;48.286;8.484;2023-05-25T05:57:54;94388.44;;;15.29;62.17
39739;BME280;25422;48.286;8.484;2023-05-25T06:00:20;94383.94;;;14.29;63.75
39739;BME280;25422;48.286;8.484;2023-05-25T06:02:46;94383.47;;;14.62;62.65
39739;BME280;25422;48.286;8.484;2023-05-25T06:05:17;94382.78;;;14.75;60.57
39739;BME280;25422;48.286;8.484;2023-05-25T06:07:43;94385.81;;;14.14;62.92
39739;BME280;25422;48.286;8.484;2023-05-25T06:10:08;94397.81;;;12.44;73.24
39739;BME280;25422;48.286;8.484;2023-05-25T06:12:34;94394.41;;;13.11;73.13
39739;BME280;25422;48.286;8.484;2023-05-25T06:15:00;94387.94;;;13.37;72.17
39739;BME280;25422;48.286;8.484;2023-05-25T06:17:27;94390.97;;;14.22;68.81
39739;BME280;25422;48.286;8.484;2023-05-25T06:19:54;94392.84;;;13.55;69.19
39739;BME280;25422;48.286;8.484;2023-05-25T06:22:19;94386.19;;;12.76;74.16
39739;BME280;25422;48.286;8.484;2023-05-25T06:24:46;94390.44;;;13.15;75.58
39739;BME280;25422;48.286;8.484;2023-05-25T06:27:12;94391.28;;;13.61;71.68
39739;BME280;25422;48.286;8.484;2023-05-25T06:29:37;94401.75;;;13.91;70.25
39739;BME280;25422;48.286;8.484;2023-05-25T06:32:04;94390.13;;;14.00;69.34
39739;BME280;25422;48.286;8.484;2023-05-25T06:34:30;94402.25;;;14.01;69.55
39739;BME280;25422;48.286;8.484;2023-05-25T06:36:56;94400.56;;;12.89;75.87
39739;BME280;25422;48.286;8.484;2023-05-25T06:39:21;94405.00;;;11.95;89.80
39739;BME280;25422;48.286;8.484;2023-05-25T06:41:48;94408.97;;;12.14;91.24
39739;BME280;25422;48.286;8.484;2023-05-25T06:44:24;94410.50;;;11.13;100.00
39739;BME280;25422;48.286;8.484;2023-05-25T06:46:51;94413.66;;;10.75;100.00
39739;BME280;25422;48.286;8.484;2023-05-25T06:49:16;94416.56;;;10.31;100.00
39739;BME280;25422;48.286;8.484;2023-05-25T06:51:41;94416.22;;;10.18;100.00
39739;BME280;25422;48.286;8.484;2023-05-25T06:54:07;94426.50;;;10.03;100.00
39739;BME280;25422;48.286;8.484;2023-05-25T06:56:32;94426.94;;;9.90;100.00
39739;BME280;25422;48.286;8.484;2023-05-25T06:58:58;94424.25;;;9.65;100.00
39739;BME280;25422;48.286;8.484;2023-05-25T07:01:23;94422.41;;;9.57;100.00
39739;BME280;25422;48.286;8.484;2023-05-25T07:03:49;94429.13;;;9.60;100.00
39739;BME280;25422;48.286;8.484;2023-05-25T07:06:14;94430.28;;;9.31;100.00
39739;BME280;25422;48.286;8.484;2023-05-25T07:08:41;94425.44;;;9.36;100.00
39739;BME280;25422;48.286;8.484;2023-05-25T07:11:06;94416.28;;;9.32;100.00
39739;BME280;25422;48.286;8.484;2023-05-25T07:13:34;94429.63;;;9.64;100.00
39739;BME280;25422;48.286;8.484;2023-05-25T07:16:00;94432.09;;;9.65;100.00
39739;BME280;25422;48.286;8.484;2023-05-25T07:18:25;94432.25;;;9.64;100.00
39739;BME280;25422;48.286;8.484;2023-05-25T07:20:51;94430.00;;;9.77;100.00
39739;BME280;25422;48.286;8.484;2023-05-25T07:23:17;94434.25;;;9.78;100.00
39739;BME280;25422;48.286;8.484;2023-05-25T07:25:42;94428.53;;;9.74;100.00
39739;BME280;25422;48.286;8.484;2023-05-25T07:28:08;94426.53;;;9.68;100.00
39739;BME280;25422;48.286;8.484;2023-05-25T07:30:33;94430.84;;;9.86;100.00
39739;BME280;25422;48.286;8.484;2023-05-25T07:32:59;94437.84;;;9.77;100.00
39739;BME280;25422;48.286;8.484;2023-05-25T07:35:25;94444.81;;;10.19;100.00
39739;BME280;25422;48.286;8.484;2023-05-25T07:38:03;94450.19;;;10.09;100.00
39739;BME280;25422;48.286;8.484;2023-05-25T07:40:29;94451.34;;;10.15;100.00
39739;BME280;25422;48.286;8.484;2023-05-25T07:42:55;94455.78;;;10.23;100.00
39739;BME280;25422;48.286;8.484;2023-05-25T07:45:21;94454.19;;;10.46;100.00
39739;BME280;25422;48.286;8.484;2023-05-25T07:47:46;94454.38;;;10.61;100.00
39739;BME280;25422;48.286;8.484;2023-05-25T07:50:15;94454.88;;;10.49;100.00
39739;BME280;25422;48.286;8.484;2023-05-25T07:52:41;94456.44;;;10.33;100.00
39739;BME280;25422;48.286;8.484;2023-05-25T07:55:07;94463.44;;;10.08;100.00
39739;BME280;25422;48.286;8.484;2023-05-25T07:57:33;94473.41;;;10.12;100.00
39739;BME280;25422;48.286;8.484;2023-05-25T07:59:59;94475.41;;;10.27;100.00
39739;BME280;25422;48.286;8.484;2023-05-25T08:02:24;94463.13;;;10.19;100.00
39739;BME280;25422;48.286;8.484;2023-05-25T08:04:50;94470.22;;;10.43;100.00
39739;BME280;25422;48.286;8.484;2023-05-25T08:07:18;94469.56;;;10.41;100.00
39739;BME280;25422;48.286;8.484;2023-05-25T08:09:44;94471.31;;;10.24;100.00
39739;BME280;25422;48.286;8.484;2023-05-25T08:12:09;94468.88;;;10.31;100.00
39739;BME280;25422;48.286;8.484;2023-05-25T08:14:35;94474.72;;;10.25;100.00
39739;BME280;25422;48.286;8.484;2023-05-25T08:17:00;94470.41;;;10.58;100.00
39739;BME280;25422;48.286;8.484;2023-05-25T08:19:27;94475.31;;;10.61;100.00
39739;BME280;25422;48.286;8.484;2023-05-25T08:21:55;94476.78;;;10.89;100.00
39739;BME280;25422;48.286;8.484;2023-05-25T08:24:20;94472.06;;;10.68;100.00
39739;BME280;25422;48.286;8.484;2023-05-25T08:26:46;94485.78;;;11.03;100.00
39739;BME280;25422;48.286;8.484;2023-05-25T08:29:13;94473.09;;;11.56;100.00
39739;BME280;25422;48.286;8.484;2023-05-25T08:31:38;94482.09;;;11.61;100.00
39739;BME280;25422;48.286;8.484;2023-05-25T08:34:06;94476.28;;;11.82;100.00
39739;BME280;25422;48.286;8.484;2023-05-25T08:36:31;94481.13;;;12.10;100.00
39739;BME280;25422;48.286;8.484;2023-05-25T08:39:00;94484.88;;;11.68;100.00
39739;BME280;25422;48.286;8.484;2023-05-25T08:41:25;94484.91;;;11.52;100.00
39739;BME280;25422;48.286;8.484;2023-05-25T08:43:51;94479.44;;;11.70;100.00
39739;BME280;25422;48.286;8.484;2023-05-25T08:46:27;94487.47;;;11.76;100.00
39739;BME280;25422;48.286;8.484;2023-05-25T08:49:12;94483.97;;;12.01;100.00
39739;BME280;25422;48.286;8.484;2023-05-25T08:51:48;94491.97;;;11.99;100.00
39739;BME280;25422;48.286;8.484;2023-05-25T08:54:17;94488.19;;;11.93;100.00
39739;BME280;25422;48.286;8.484;2023-05-25T08:56:54;94491.00;;;11.92;100.00
39739;BME280;25422;48.286;8.484;2023-05-25T09:02:44;94504.84;;;12.48;100.00
39739;BME280;25422;48.286;8.484;2023-05-25T09:05:13;94506.81;;;12.46;100.00
39739;BME280;25422;48.286;8.484;2023-05-25T09:07:44;94515.78;;;12.84;100.00
39739;BME280;25422;48.286;8.484;2023-05-25T09:10:11;94515.00;;;12.52;100.00
39739;BME280;25422;48.286;8.484;2023-05-25T09:12:37;94519.00;;;13.32;100.00
39739;BME280;25422;48.286;8.484;2023-05-25T09:15:03;94516.69;;;13.14;100.00
39739;BME280;25422;48.286;8.484;2023-05-25T09:17:29;94516.94;;;13.04;100.00
39739;BME280;25422;48.286;8.484;2023-05-25T09:19:55;94510.22;;;13.02;100.00
39739;BME280;25422;48.286;8.484;2023-05-25T09:22:21;94514.63;;;13.09;100.00
39739;BME280;25422;48.286;8.484;2023-05-25T09:24:47;94506.94;;;13.46;100.00
39739;BME280;25422;48.286;8.484;2023-05-25T09:27:17;94510.03;;;13.94;100.00
39739;BME280;25422;48.286;8.484;2023-05-25T09:29:47;94526.81;;;13.78;100.00
39739;BME280;25422;48.286;8.484;2023-05-25T09:32:13;94521.53;;;14.38;100.00
39739;BME280;25422;48.286;8.484;2023-05-25T09:34:39;94523.53;;;13.76;100.00
39739;BME280;25422;48.286;8.484;2023-05-25T09:37:11;94518.09;;;14.23;100.00
39739;BME280;25422;48.286;8.484;2023-05-25T09:39:39;94521.06;;;14.34;100.00
39739;BME280;25422;48.286;8.484;2023-05-25T09:42:05;94522.50;;;14.37;100.00
39739;BME280;25422;48.286;8.484;2023-05-25T09:44:30;94524.34;;;14.37;100.00
39739;BME280;25422;48.286;8.484;2023-05-25T09:46:56;94525.03;;;14.45;100.00
39739;BME280;25422;48.286;8.484;2023-05-25T09:49:21;94529.19;;;14.55;100.00
39739;BME280;25422;48.286;8.484;2023-05-25T09:51:47;94528.81;;;14.94;100.00
39739;BME280;25422;48.286;8.484;2023-05-25T09:54:13;94530.38;;;14.67;100.00
39739;BME280;25422;48.286;8.484;2023-05-25T09:56:40;94529.13;;;14.48;100.00
39739;BME280;25422;48.286;8.484;2023-05-25T09:59:05;94516.59;;;14.87;100.00
39739;BME280;25422;48.286;8.484;2023-05-25T10:01:32;94521.59;;;14.45;100.00
39739;BME280;25422;48.286;8.484;2023-05-25T10:03:57;94531.53;;;14.79;100.00
39739;BME280;25422;48.286;8.484;2023-05-25T10:06:26;94526.69;;;14.83;100.00
39739;BME280;25422;48.286;8.484;2023-05-25T10:08:56;94537.53;;;14.73;100.00
39739;BME280;25422;48.286;8.484;2023-05-25T10:11:25;94528.31;;;14.47;100.00
39739;BME280;25422;48.286;8.484;2023-05-25T10:13:53;94538.09;;;14.54;100.00
39739;BME280;25422;48.286;8.484;2023-05-25T10:16:24;94545.47;;;14.43;100.00
39739;BME280;25422;48.286;8.484;2023-05-25T10:19:09;94546.31;;;14.80;100.00
39739;BME280;25422;48.286;8.484;2023-05-25T10:21:38;94553.16;;;14.75;100.00
39739;BME280;25422;48.286;8.484;2023-05-25T10:24:07;94546.28;;;15.17;100.00
39739;BME280;25422;48.286;8.484;2023-05-25T10:26:35;94557.47;;;14.82;100.00
39739;BME280;25422;48.286;8.484;2023-05-25T10:29:06;94556.66;;;14.82;100.00
39739;BME280;25422;48.286;8.484;2023-05-25T10:31:33;94568.16;;;15.39;100.00
39739;BME280;25422;48.286;8.484;2023-05-25T10:34:02;94566.09;;;15.56;100.00
39739;BME280;25422;48.286;8.484;2023-05-25T10:36:28;94560.66;;;15.64;100.00
39739;BME280;25422;48.286;8.484;2023-05-25T10:38:55;94558.00;;;16.14;100.00
39739;BME280;25422;48.286;8.484;2023-05-25T10:41:21;94563.56;;;16.33;99.49
39739;BME280;25422;48.286;8.484;2023-05-25T10:43:47;94556.00;;;16.23;99.05
39739;BME280;25422;48.286;8.484;2023-05-25T10:46:14;94558.69;;;16.37;99.59
39739;BME280;25422;48.286;8.484;2023-05-25T10:48:45;94561.50;;;16.28;99.67
39739;BME280;25422;48.286;8.484;2023-05-25T10:51:11;94564.59;;;16.32;100.00
39739;BME280;25422;48.286;8.484;2023-05-25T10:53:42;94560.84;;;16.19;100.00
39739;BME280;25422;48.286;8.484;2023-05-25T10:56:08;94556.00;;;16.23;98.97
39739;BME280;25422;48.286;8.484;2023-05-25T10:58:34;94561.47;;;15.65;100.00
39739;BME280;25422;48.286;8.484;2023-05-25T11:01:08;94566.13;;;15.63;100.00
39739;BME280;25422;48.286;8.484;2023-05-25T11:06:09;94569.63;;;15.70;100.00
39739;BME280;25422;48.286;8.484;2023-05-25T11:08:49;94563.69;;;15.61;100.00
39739;BME280;25422;48.286;8.484;2023-05-25T11:11:15;94568.19;;;16.24;100.00
39739;BME280;25422;48.286;8.484;2023-05-25T11:13:45;94565.50;;;16.59;99.06
39739;BME280;25422;48.286;8.484;2023-05-25T11:18:57;94568.34;;;16.16;100.00
39739;BME280;25422;48.286;8.484;2023-05-25T11:24:18;94559.16;;;16.47;100.00
39739;BME280;25422;48.286;8.484;2023-05-25T11:26:56;94559.94;;;15.77;100.00
39739;BME280;25422;48.286;8.484;2023-05-25T11:29:22;94560.09;;;15.97;100.00
39739;BME280;25422;48.286;8.484;2023-05-25T11:31:53;94553.28;;;15.81;100.00
39739;BME280;25422;48.286;8.484;2023-05-25T11:34:23;94561.47;;;16.22;100.00
39739;BME280;25422;48.286;8.484;2023-05-25T11:36:54;94560.69;;;16.76;100.00
39739;BME280;25422;48.286;8.484;2023-05-25T11:39:21;94565.59;;;16.86;98.82
39739;BME280;25422;48.286;8.484;2023-05-25T11:41:53;94565.25;;;16.96;98.03
39739;BME280;25422;48.286;8.484;2023-05-25T11:44:26;94557.16;;;17.11;95.89
39739;BME280;25422;48.286;8.484;2023-05-25T11:46:56;94554.53;;;17.38;90.99
39739;BME280;25422;48.286;8.484;2023-05-25T11:49:23;94563.47;;;17.16;94.35
39739;BME280;25422;48.286;8.484;2023-05-25T11:51:49;94559.03;;;17.64;90.07
39739;BME280;25422;48.286;8.484;2023-05-25T11:54:25;94565.28;;;17.02;95.15
39739;BME280;25422;48.286;8.484;2023-05-25T11:56:52;94564.91;;;16.64;96.17
39739;BME280;25422;48.286;8.484;2023-05-25T11:59:18;94564.13;;;16.70;96.94
39739;BME280;25422;48.286;8.484;2023-05-25T12:01:54;94570.13;;;16.50;95.66
39739;BME280;25422;48.286;8.484;2023-05-25T12:04:19;94563.50;;;17.30;92.52
39739;BME280;25422;48.286;8.484;2023-05-25T12:06:45;94558.94;;;18.31;86.41
39739;BME280;25422;48.286;8.484;2023-05-25T12:09:12;94556.50;;;18.81;79.27
39739;BME280;25422;48.286;8.484;2023-05-25T12:11:37;94560.44;;;18.00;81.34
39739;BME280;25422;48.286;8.484;2023-05-25T12:14:05;94558.00;;;17.38;85.64
39739;BME280;25422;48.286;8.484;2023-05-25T12:16:32;94565.09;;;17.17;90.81
39739;BME280;25422;48.286;8.484;2023-05-25T12:18:59;94563.28;;;17.25;90.65
39739;BME280;25422;48.286;8.484;2023-05-25T12:21:26;94566.97;;;17.57;90.53
39739;BME280;25422;48.286;8.484;2023-05-25T12:23:52;94569.41;;;17.85;86.02
39739;BME280;25422;48.286;8.484;2023-05-25T12:26:18;94566.34;;;17.68;86.01
39739;BME280;25422;48.286;8.484;2023-05-25T12:31:26;94565.72;;;18.00;86.78
39739;BME280;25422;48.286;8.484;2023-05-25T12:34:08;94568.59;;;17.98;88.96
39739;BME280;25422;48.286;8.484;2023-05-25T12:36:51;94576.94;;;18.02;87.50
39739;BME280;25422;48.286;8.484;2023-05-25T12:41:59;94575.69;;;17.91;87.79
39739;BME280;25422;48.286;8.484;2023-05-25T12:44:36;94565.50;;;19.26;79.48
39739;BME280;25422;48.286;8.484;2023-05-25T12:49:40;94572.22;;;20.11;72.50
39739;BME280;25422;48.286;8.484;2023-05-25T12:52:08;94580.78;;;19.87;68.83
39739;BME280;25422;48.286;8.484;2023-05-25T12:54:45;94574.47;;;19.57;72.47
39739;BME280;25422;48.286;8.484;2023-05-25T12:57:13;94581.31;;;19.39;70.95
39739;BME280;25422;48.286;8.484;2023-05-25T12:59:41;94577.13;;;18.27;79.76
39739;BME280;25422;48.286;8.484;2023-05-25T13:02:06;94579.16;;;18.05;81.41
39739;BME280;25422;48.286;8.484;2023-05-25T13:04:33;94576.16;;;17.95;83.99
39739;BME280;25422;48.286;8.484;2023-05-25T13:06:58;94568.59;;;17.65;83.84
39739;BME280;25422;48.286;8.484;2023-05-25T13:09:25;94580.19;;;17.50;87.17
39739;BME280;25422;48.286;8.484;2023-05-25T13:11:54;94577.56;;;17.91;87.60
39739;BME280;25422;48.286;8.484;2023-05-25T13:14:20;94572.00;;;18.26;86.05
39739;BME280;25422;48.286;8.484;2023-05-25T13:16:46;94573.56;;;18.53;80.31
39739;BME280;25422;48.286;8.484;2023-05-25T13:19:12;94587.75;;;17.94;81.72
39739;BME280;25422;48.286;8.484;2023-05-25T13:21:37;94573.47;;;17.55;84.86